Hovedside
METAR-TAF:

METAR-TAF

Lufthavner :

Funafuti internasjonale lufthavn

Funafuti, Tuvalu

breddegrad: 08-31S, lengdegrad: 179-13E, høyde over havet: 1 m

Gjeldene værobservasjon

Denne rapporten ble laget for 2 timer og 34 minutter siden, klokken 13:00 UTC
Vind 2 kt fra skiftende retning
Temperatur 27°C
Luftfuktighet 89%
Trykk 1008 hPa
Sikt 10 km eller mer
Spredte skyer i en høyde av 1800 ft, Tårnskyer (cumulus).

METAR: NGFU 141300Z VRB02KT 9999 SCT018TCU 27/25 Q1008 RERA

Tid: 03:34 (15:34 UTC)

Varsel

Denne rapporten ble laget for 4 timer og 28 minutter siden, klokken 11:06 UTC
Varsel gyldig fra 14. klokken 12 UTC til 15. klokken 12 UTC
Vind 3 kt fra Øst
Sikt 10 km eller mer
Spredte skyer i en høyde av 2000 ft
Midlertidig
fra 14. klokken 12 UTC til 15. klokken 06 UTC
Sikt: 5000 m
Brutte skyer i en høyde av 1500 ft
Få skyer i en høyde av 1700 ft, Bygeskyer.
torden, regn

TAF: NGFU 141106Z 1412/1512 10003KT 9999 SCT020 TEMPO 1412/1506 5000 TSRA BKN015 FEW017CB

Værobservasjoner og værvarsel for over 4000 flyplasser (METAR- og TAF-rapporter).

Tilgjengelige stasjoner er representert av de røde og gule prikkene på kartet.

Hold musepekeren over prikken for å se navnet på stasjonen.

Klikk så for å se værobservasjoner og -varsler.

For å forandre kartet kan du klikke på den grønne knappen med svart kryss for å zoome inn, på den grønne knappen med strek for å zoome ut, eller på de grønne pilene for å se tilstøtende kart.


METAR-TAF: